Time;durP1;ratioP1;P1;durP2;ratioP2;P2;SDS_P1;SDS_P2;PMS_P1;PMS_P2;Temp;Humidity;BMP_temperature;BMP_pressure;BME280_temperature;BME280_humidity;BME280_pressure;Samples;Min_cycle;Max_cycle;Signal;HPM_P1;HPM_P2
2023/06/13 00:00:15;;;;;;;1.08;0.98;;;24.70;58.00;;;;;;6094516;29;20067;-50
2023/06/13 00:03:20;;;;;;;0.65;0.65;;;24.70;57.90;;;;;;6094642;29;20044;-52
2023/06/13 00:06:23;;;;;;;0.73;0.60;;;24.70;58.00;;;;;;6094370;29;20051;-52
2023/06/13 00:09:26;;;;;;;0.80;0.70;;;24.80;57.70;;;;;;6094851;29;20047;-53
2023/06/13 00:12:27;;;;;;;0.70;0.60;;;24.50;57.90;;;;;;6076487;29;20100;-51
2023/06/13 00:15:31;;;;;;;0.85;0.82;;;24.70;58.10;;;;;;6093185;29;20036;-51
2023/06/13 00:18:37;;;;;;;0.60;0.52;;;24.20;57.90;;;;;;6094278;29;20071;-53
2023/06/13 00:21:41;;;;;;;0.60;0.50;;;24.80;58.30;;;;;;6094410;29;20044;-50
2023/06/13 00:24:43;;;;;;;0.60;0.57;;;24.50;58.10;;;;;;6091623;29;20033;-52
2023/06/13 00:27:45;;;;;;;0.50;0.50;;;24.70;58.30;;;;;;6092885;29;20037;-51
2023/06/13 00:30:48;;;;;;;0.65;0.60;;;24.70;58.40;;;;;;6093898;29;20038;-50
2023/06/13 00:33:52;;;;;;;0.55;0.55;;;24.80;58.30;;;;;;6093649;29;20119;-53
2023/06/13 00:36:55;;;;;;;0.80;0.70;;;24.70;58.30;;;;;;6094131;29;20047;-50
2023/06/13 00:39:57;;;;;;;0.57;0.57;;;24.80;58.30;;;;;;6094175;29;20036;-52
2023/06/13 00:42:58;;;;;;;0.73;0.70;;;24.40;58.20;;;;;;6092245;29;20048;-53
2023/06/13 00:46:02;;;;;;;0.65;0.65;;;24.90;58.50;;;;;;6091700;29;20032;-49
2023/06/13 00:49:06;;;;;;;0.50;0.50;;;24.60;58.40;;;;;;6092346;29;20052;-53
2023/06/13 00:52:08;;;;;;;0.50;0.43;;;24.70;58.30;;;;;;6079143;29;20052;-54
2023/06/13 00:55:10;;;;;;;0.40;0.40;;;24.70;58.30;;;;;;6097154;29;20036;-54
2023/06/13 00:58:13;;;;;;;0.55;0.40;;;24.60;58.30;;;;;;6096383;29;20044;-51
2023/06/13 01:01:19;;;;;;;0.45;0.43;;;24.40;58.10;;;;;;6095812;29;20044;-52
2023/06/13 01:04:21;;;;;;;0.50;0.50;;;24.70;58.40;;;;;;6092982;29;20047;-54
2023/06/13 01:07:29;;;;;;;0.43;0.43;;;24.90;58.60;;;;;;6094861;29;20086;-48
2023/06/13 01:10:32;;;;;;;0.40;0.38;;;24.40;58.20;;;;;;6095973;29;20042;-49
2023/06/13 01:13:43;;;;;;;1.00;0.70;;;24.40;58.30;;;;;;6096164;29;20099;-45
2023/06/13 01:16:48;;;;;;;0.60;0.52;;;24.30;58.20;;;;;;6095046;29;20070;-46
2023/06/13 01:19:53;;;;;;;0.50;0.40;;;24.70;59.00;;;;;;6096634;29;20042;-48
2023/06/13 01:23:14;;;;;;;0.45;0.40;;;24.90;58.50;;;;;;6120456;23;20080;-49
2023/06/13 01:26:28;;;;;;;0.55;0.50;;;24.80;58.40;;;;;;6097220;29;20299;-48
2023/06/13 01:29:33;;;;;;;0.43;0.40;;;24.70;58.40;;;;;;6098060;29;20041;-46
2023/06/13 01:32:38;;;;;;;0.60;0.57;;;24.30;58.20;;;;;;6093426;29;20566;-47
2023/06/13 01:35:40;;;;;;;0.88;0.70;;;24.80;58.50;;;;;;6094206;29;20044;-47
2023/06/13 01:38:42;;;;;;;0.80;0.60;;;24.80;58.60;;;;;;6094761;29;20348;-46
2023/06/13 01:41:44;;;;;;;0.60;0.50;;;24.70;58.40;;;;;;6093138;29;20068;-48
2023/06/13 01:44:46;;;;;;;0.50;0.50;;;24.30;58.30;;;;;;6097241;29;20032;-46
2023/06/13 01:47:58;;;;;;;0.40;0.40;;;24.90;58.50;;;;;;6090714;29;20052;-46
2023/06/13 01:51:07;;;;;;;0.60;0.50;;;24.70;58.30;;;;;;6095531;29;20459;-47
2023/06/13 01:54:11;;;;;;;0.43;0.38;;;24.70;58.40;;;;;;6097138;29;20036;-46
2023/06/13 01:57:16;;;;;;;0.35;0.30;;;24.50;58.30;;;;;;6096764;29;20411;-48
2023/06/13 02:00:20;;;;;;;0.30;0.30;;;24.60;58.40;;;;;;6080313;29;20040;-47
2023/06/13 02:03:24;;;;;;;0.55;0.50;;;24.50;58.30;;;;;;6096743;29;20048;-49
2023/06/13 02:06:26;;;;;;;0.40;0.40;;;24.70;58.40;;;;;;6079958;29;20042;-45
2023/06/13 02:09:28;;;;;;;0.47;0.47;;;24.60;58.40;;;;;;6096488;29;20044;-45
2023/06/13 02:12:30;;;;;;;0.45;0.43;;;24.70;58.50;;;;;;6096215;29;20052;-47
2023/06/13 02:15:35;;;;;;;0.32;0.32;;;24.80;58.70;;;;;;6096522;29;20047;-47
2023/06/13 02:18:39;;;;;;;0.40;0.32;;;24.60;58.50;;;;;;6097078;29;20048;-45
2023/06/13 02:21:45;;;;;;;0.40;0.30;;;24.60;58.50;;;;;;6096336;29;20107;-45
2023/06/13 02:24:49;;;;;;;0.40;0.40;;;24.60;58.50;;;;;;6096071;29;20048;-47
2023/06/13 02:27:51;;;;;;;0.52;0.50;;;24.70;58.70;;;;;;6089705;29;20044;-46
2023/06/13 02:30:53;;;;;;;0.40;0.40;;;24.70;58.30;;;;;;6095842;29;20754;-45
2023/06/13 02:33:56;;;;;;;0.52;0.50;;;24.50;58.50;;;;;;6095669;29;20123;-48
2023/06/13 02:36:57;;;;;;;0.40;0.40;;;24.70;58.60;;;;;;6095739;29;20415;-47
2023/06/13 02:40:05;;;;;;;0.65;0.40;;;24.70;58.80;;;;;;6095981;29;20381;-47
2023/06/13 02:43:06;;;;;;;0.40;0.40;;;24.60;57.30;;;;;;6095077;29;20451;-49
2023/06/13 02:46:08;;;;;;;0.35;0.32;;;24.70;58.80;;;;;;6091326;29;20054;-46
2023/06/13 02:49:10;;;;;;;0.32;0.32;;;24.70;58.70;;;;;;6092723;29;20040;-46
2023/06/13 02:52:13;;;;;;;0.43;0.40;;;24.60;58.70;;;;;;6096500;29;20091;-49
2023/06/13 02:55:15;;;;;;;0.30;0.30;;;24.60;58.60;;;;;;6096263;29;20503;-46
2023/06/13 02:58:18;;;;;;;0.40;0.40;;;24.70;58.70;;;;;;6096493;29;20032;-49
2023/06/13 03:01:20;;;;;;;0.50;0.40;;;24.50;58.60;;;;;;6087508;29;20043;-46
2023/06/13 03:04:24;;;;;;;0.22;0.22;;;24.70;58.80;;;;;;6095044;29;20119;-50
2023/06/13 03:07:26;;;;;;;0.40;0.40;;;24.20;58.50;;;;;;6078665;29;20408;-48
2023/06/13 03:10:28;;;;;;;0.55;0.55;;;24.50;58.70;;;;;;6096282;29;20036;-52
2023/06/13 03:13:31;;;;;;;0.40;0.40;;;24.60;58.70;;;;;;6095059;29;20036;-48
2023/06/13 03:16:35;;;;;;;0.40;0.40;;;24.50;58.90;;;;;;6095897;29;20553;-46
2023/06/13 03:19:38;;;;;;;0.40;0.40;;;24.50;58.60;;;;;;6095033;29;20388;-45
2023/06/13 03:22:40;;;;;;;0.55;0.55;;;24.60;58.90;;;;;;6097651;29;20051;-57
2023/06/13 03:25:42;;;;;;;0.43;0.43;;;24.30;58.70;;;;;;6089453;29;20096;-57
2023/06/13 03:28:45;;;;;;;0.35;0.35;;;24.60;58.70;;;;;;6096527;29;20032;-57
2023/06/13 03:31:47;;;;;;;0.40;0.32;;;24.50;58.80;;;;;;6097689;29;20388;-57
2023/06/13 03:34:50;;;;;;;0.38;0.38;;;24.50;58.80;;;;;;6097174;29;20573;-57
2023/06/13 03:37:51;;;;;;;0.50;0.47;;;24.10;58.60;;;;;;6093300;29;20039;-57
2023/06/13 03:40:53;;;;;;;0.50;0.40;;;24.60;59.00;;;;;;6094732;29;20033;-58
2023/06/13 03:43:56;;;;;;;0.60;0.43;;;24.50;58.90;;;;;;6094081;29;20044;-57
2023/06/13 03:47:00;;;;;;;0.50;0.50;;;24.10;58.70;;;;;;6093946;29;20673;-57
2023/06/13 03:50:02;;;;;;;0.50;0.50;;;24.50;58.80;;;;;;6096811;29;20040;-57
2023/06/13 03:53:04;;;;;;;0.40;0.40;;;24.50;59.00;;;;;;6075065;29;20043;-58
2023/06/13 03:56:07;;;;;;;0.60;0.60;;;24.50;58.80;;;;;;6084840;29;20139;-57
2023/06/13 03:59:13;;;;;;;0.50;0.50;;;24.50;59.00;;;;;;6088230;29;20077;-57
2023/06/13 04:02:15;;;;;;;0.52;0.40;;;24.50;59.20;;;;;;6093196;29;20538;-57
2023/06/13 04:05:18;;;;;;;0.40;0.40;;;24.50;59.00;;;;;;6096095;29;20040;-57
2023/06/13 04:08:19;;;;;;;0.45;0.43;;;24.50;59.00;;;;;;6095538;29;20044;-57
2023/06/13 04:11:21;;;;;;;0.30;0.30;;;24.40;58.90;;;;;;6096111;29;20705;-57
2023/06/13 04:14:23;;;;;;;0.43;0.40;;;24.50;58.80;;;;;;6094857;29;20044;-57
2023/06/13 04:17:25;;;;;;;0.55;0.40;;;24.40;58.90;;;;;;6095484;29;20044;-58
2023/06/13 04:20:27;;;;;;;0.50;0.50;;;24.40;58.50;;;;;;6095633;29;20048;-58
2023/06/13 04:23:28;;;;;;;0.50;0.50;;;24.30;59.00;;;;;;6094730;29;20042;-57
2023/06/13 04:26:30;;;;;;;0.60;0.60;;;24.40;58.80;;;;;;6097120;29;20130;-58
2023/06/13 04:29:31;;;;;;;0.70;0.50;;;24.50;59.10;;;;;;6099424;29;20413;-57
2023/06/13 04:32:34;;;;;;;0.40;0.40;;;24.00;58.70;;;;;;6099877;29;20041;-57
2023/06/13 04:35:44;;;;;;;0.45;0.43;;;24.40;59.00;;;;;;6099576;29;20111;-57
2023/06/13 04:38:45;;;;;;;0.40;0.40;;;24.50;59.00;;;;;;6098888;29;20043;-57
2023/06/13 04:41:48;;;;;;;0.50;0.45;;;24.40;59.10;;;;;;6099657;29;20492;-57
2023/06/13 04:44:52;;;;;;;0.40;0.40;;;24.00;58.60;;;;;;6092207;29;20036;-56
2023/06/13 04:47:57;;;;;;;0.55;0.55;;;24.40;59.00;;;;;;6100410;29;20047;-57
2023/06/13 04:51:00;;;;;;;0.55;0.55;;;24.40;59.00;;;;;;6100760;29;20411;-57
2023/06/13 04:54:02;;;;;;;0.55;0.55;;;24.30;59.10;;;;;;6083137;29;20040;-57
2023/06/13 04:57:08;;;;;;;0.50;0.40;;;24.40;59.00;;;;;;6100198;29;20040;-56
2023/06/13 05:00:10;;;;;;;0.50;0.50;;;24.40;59.00;;;;;;6100336;29;20044;-57
2023/06/13 05:03:16;;;;;;;0.60;0.45;;;24.40;59.00;;;;;;6099040;29;20052;-57
2023/06/13 05:06:18;;;;;;;0.60;0.60;;;24.40;59.20;;;;;;6094801;29;20037;-57
2023/06/13 05:09:19;;;;;;;0.50;0.50;;;24.40;59.10;;;;;;6098370;29;20051;-57
2023/06/13 05:12:23;;;;;;;0.85;0.70;;;24.50;59.20;;;;;;6100373;29;20398;-57
2023/06/13 05:15:25;;;;;;;0.40;0.40;;;24.40;59.10;;;;;;6099941;29;20044;-56
2023/06/13 05:18:29;;;;;;;0.50;0.50;;;24.40;59.20;;;;;;6099116;29;20503;-57
2023/06/13 05:21:36;;;;;;;0.82;0.60;;;24.00;58.90;;;;;;6099697;29;20079;-59
2023/06/13 05:24:37;;;;;;;0.50;0.50;;;24.10;57.00;;;;;;6097530;29;20666;-49
2023/06/13 05:27:39;;;;;;;0.50;0.50;;;24.20;59.10;;;;;;6097148;29;20040;-46
2023/06/13 05:30:41;;;;;;;0.45;0.40;;;24.40;59.20;;;;;;6098498;29;20045;-47
2023/06/13 05:33:43;;;;;;;0.60;0.55;;;24.20;59.10;;;;;;6096041;29;20100;-48
2023/06/13 05:36:45;;;;;;;0.75;0.70;;;24.30;59.30;;;;;;6096610;29;20713;-46
2023/06/13 05:39:46;;;;;;;0.55;0.55;;;24.10;59.00;;;;;;6096918;29;20040;-48
2023/06/13 05:42:48;;;;;;;0.50;0.50;;;24.20;59.30;;;;;;6095457;29;20047;-50
2023/06/13 05:45:50;;;;;;;0.43;0.43;;;24.20;59.10;;;;;;6089546;29;20056;-49
2023/06/13 05:48:52;;;;;;;0.68;0.50;;;24.20;59.20;;;;;;6086950;29;20044;-49
2023/06/13 05:51:53;;;;;;;0.63;0.60;;;24.00;59.00;;;;;;6090797;29;20123;-46
2023/06/13 05:54:55;;;;;;;0.73;0.73;;;24.20;59.20;;;;;;6093502;29;20480;-46
2023/06/13 05:57:56;;;;;;;0.50;0.50;;;23.90;59.00;;;;;;6092895;29;20160;-47
2023/06/13 06:01:00;;;;;;;0.47;0.43;;;24.10;59.20;;;;;;6094862;29;20048;-50
2023/06/13 06:04:02;;;;;;;1.05;0.60;;;24.20;59.20;;;;;;6075826;29;20612;-49
2023/06/13 06:07:04;;;;;;;0.70;0.50;;;24.40;59.60;;;;;;6067259;29;20047;-51
2023/06/13 06:10:10;;;;;;;0.40;0.40;;;24.40;59.20;;;;;;6061854;29;20095;-49
2023/06/13 06:13:11;;;;;;;0.50;0.40;;;24.20;59.10;;;;;;6064806;29;20047;-48
2023/06/13 06:16:13;;;;;;;1.95;1.33;;;24.30;59.40;;;;;;6096787;29;20047;-50
2023/06/13 06:19:15;;;;;;;3.08;1.13;;;24.30;59.50;;;;;;6097442;29;20048;-48
2023/06/13 06:22:16;;;;;;;1.10;0.90;;;24.30;59.40;;;;;;6106480;29;20048;-47
2023/06/13 06:25:19;;;;;;;1.88;1.42;;;24.30;59.60;;;;;;6086939;29;20051;-49
2023/06/13 06:28:24;;;;;;;2.17;1.88;;;24.30;59.40;;;;;;6091695;29;20051;-49
2023/06/13 06:31:27;;;;;;;3.67;2.50;;;24.10;59.70;;;;;;6100245;29;20048;-44
2023/06/13 06:34:29;;;;;;;2.40;1.83;;;24.00;59.40;;;;;;6087516;29;20041;-45
2023/06/13 06:37:31;;;;;;;3.63;1.95;;;24.30;60.00;;;;;;6076649;29;20053;-45
2023/06/13 06:40:32;;;;;;;3.60;2.75;;;24.10;60.10;;;;;;6077243;29;20051;-47
2023/06/13 06:43:35;;;;;;;2.95;2.20;;;24.00;60.30;;;;;;6085494;29;20112;-46
2023/06/13 06:46:46;;;;;;;4.40;2.60;;;23.90;60.50;;;;;;6095569;29;20037;-48
2023/06/13 06:49:48;;;;;;;2.83;2.38;;;23.90;60.70;;;;;;6102701;29;20051;-46
2023/06/13 06:52:50;;;;;;;4.22;2.75;;;23.90;60.80;;;;;;6099017;29;20044;-46
2023/06/13 06:55:51;;;;;;;3.50;2.47;;;23.30;61.60;;;;;;6092253;29;20737;-47
2023/06/13 06:58:54;;;;;;;2.70;2.45;;;23.70;61.60;;;;;;6084517;29;20612;-49
2023/06/13 07:01:56;;;;;;;4.57;2.20;;;23.70;62.00;;;;;;6079438;29;20060;-47
2023/06/13 07:04:58;;;;;;;4.10;2.28;;;23.40;62.00;;;;;;6077630;29;20036;-50
2023/06/13 07:07:59;;;;;;;2.85;2.30;;;23.30;62.10;;;;;;6078591;29;20036;-48
2023/06/13 07:11:01;;;;;;;1.70;1.60;;;23.60;62.40;;;;;;6084988;29;20095;-47
2023/06/13 07:14:03;;;;;;;2.17;1.98;;;23.60;62.60;;;;;;6079930;29;20054;-48
2023/06/13 07:17:05;;;;;;;2.40;1.58;;;23.50;62.70;;;;;;6079389;29;20039;-49
2023/06/13 07:20:08;;;;;;;2.25;1.23;;;23.30;62.50;;;;;;6072603;29;20044;-45
2023/06/13 07:23:10;;;;;;;2.00;1.30;;;23.60;62.40;;;;;;6055492;29;20504;-47
2023/06/13 07:26:11;;;;;;;1.55;1.40;;;23.80;62.80;;;;;;6045100;29;20152;-46
2023/06/13 07:30:48;;;;;;;3.00;1.50;;;23.50;61.80;;;;;;6446124;27;20298;-50
2023/06/13 07:42:31;;;;;;;1.45;1.13;;;23.20;74.70;;;;;;6402764;27;20293;-47
2023/06/13 07:45:33;;;;;;;2.42;1.08;;;25.00;61.60;;;;;;6383861;27;20040;-46
2023/06/13 07:48:34;;;;;;;2.08;1.25;;;23.60;60.90;;;;;;6358418;27;20111;-46
2023/06/13 07:51:38;;;;;;;1.33;1.15;;;23.70;60.90;;;;;;6406324;27;20113;-51
2023/06/13 07:54:43;;;;;;;1.58;0.93;;;23.80;61.00;;;;;;6408039;27;20258;-47
2023/06/13 07:57:46;;;;;;;1.20;1.10;;;23.70;60.50;;;;;;6397573;27;20034;-47
2023/06/13 08:01:01;;;;;;;1.10;1.00;;;23.90;60.40;;;;;;6373222;27;20299;-46
2023/06/13 08:04:03;;;;;;;1.45;0.80;;;24.00;60.30;;;;;;6379724;27;20039;-46
2023/06/13 08:07:07;;;;;;;2.65;1.70;;;23.90;60.00;;;;;;6390904;27;20035;-49
2023/06/13 08:10:08;;;;;;;2.40;2.00;;;23.80;59.90;;;;;;6378774;27;20711;-49
2023/06/13 08:13:11;;;;;;;4.30;2.70;;;24.00;60.00;;;;;;6380464;27;20061;-46
2023/06/13 08:16:14;;;;;;;3.17;2.53;;;23.70;59.90;;;;;;6387392;27;20042;-46
2023/06/13 08:19:16;;;;;;;3.90;2.90;;;23.90;60.00;;;;;;6389375;27;20050;-47
2023/06/13 08:22:18;;;;;;;3.97;2.88;;;24.00;60.10;;;;;;6390728;27;20057;-52
2023/06/13 08:25:20;;;;;;;5.13;3.15;;;24.10;60.20;;;;;;6386292;27;20215;-50
2023/06/13 08:28:25;;;;;;;5.00;3.17;;;23.90;60.30;;;;;;6387882;27;20467;-46
2023/06/13 08:31:26;;;;;;;4.38;3.10;;;24.20;60.50;;;;;;6381809;27;20113;-47
2023/06/13 08:34:47;;;;;;;4.35;3.42;;;24.00;60.50;;;;;;6378325;27;20026;-47
2023/06/13 08:37:49;;;;;;;4.50;3.50;;;23.90;60.90;;;;;;6382286;27;20034;-47
2023/06/13 08:40:52;;;;;;;4.28;3.10;;;23.90;60.70;;;;;;6379423;27;20562;-47
2023/06/13 08:43:57;;;;;;;4.55;3.58;;;23.20;59.80;;;;;;6383744;27;20046;-49
2023/06/13 08:46:59;;;;;;;3.58;2.83;;;24.00;61.00;;;;;;6374298;27;20042;-45
2023/06/13 08:50:01;;;;;;;4.35;2.97;;;23.00;60.30;;;;;;6369444;27;20034;-47
2023/06/13 08:53:04;;;;;;;4.70;2.85;;;23.80;61.20;;;;;;6368377;27;20802;-46
2023/06/13 08:56:07;;;;;;;5.18;3.00;;;24.50;61.40;;;;;;6362217;27;20027;-49
2023/06/13 08:59:15;;;;;;;4.00;3.22;;;23.90;61.40;;;;;;6356364;27;20061;-47
2023/06/13 09:02:19;;;;;;;3.15;2.75;;;24.00;61.30;;;;;;6344587;27;20143;-49
2023/06/13 09:05:21;;;;;;;4.05;2.83;;;24.40;61.90;;;;;;6330799;27;20035;-47
2023/06/13 09:08:25;;;;;;;3.35;2.78;;;23.70;61.40;;;;;;6350585;27;20172;-46
2023/06/13 09:11:34;;;;;;;3.65;2.72;;;24.00;62.00;;;;;;6356563;27;20669;-48
2023/06/13 09:14:36;;;;;;;3.92;3.22;;;23.90;61.80;;;;;;6342382;27;20043;-47
2023/06/13 09:17:39;;;;;;;4.78;2.88;;;23.90;61.60;;;;;;6332550;27;20699;-49
2023/06/13 09:20:41;;;;;;;3.30;2.80;;;24.10;61.70;;;;;;6363577;27;20034;-47
2023/06/13 09:23:43;;;;;;;3.70;3.40;;;24.00;61.50;;;;;;6363426;27;20039;-46
2023/06/13 09:26:45;;;;;;;3.65;2.83;;;23.90;61.40;;;;;;6342958;27;20693;-46
2023/06/13 09:29:49;;;;;;;2.65;2.15;;;23.50;61.10;;;;;;6351800;27;20034;-48
2023/06/13 09:32:53;;;;;;;3.13;2.50;;;24.00;61.80;;;;;;6350190;27;20031;-50
2023/06/13 09:35:57;;;;;;;2.38;2.17;;;24.10;61.30;;;;;;6354955;27;20091;-49
2023/06/13 09:39:20;;;;;;;1.80;1.70;;;24.10;61.30;;;;;;6338848;27;20064;-49
2023/06/13 09:42:23;;;;;;;1.60;1.50;;;23.80;61.30;;;;;;6365256;27;20042;-46
2023/06/13 09:45:30;;;;;;;1.85;1.58;;;24.20;61.20;;;;;;6295527;27;20031;-46
2023/06/13 09:48:32;;;;;;;1.75;1.60;;;24.20;61.50;;;;;;6323987;27;20039;-47
2023/06/13 09:51:57;;;;;;;1.98;1.75;;;24.30;61.10;;;;;;6308860;27;20065;-49
2023/06/13 09:54:59;;;;;;;1.60;1.50;;;24.30;61.30;;;;;;6329273;27;20034;-48
2023/06/13 09:58:01;;;;;;;1.95;1.45;;;24.10;61.90;;;;;;6323845;27;20050;-47
2023/06/13 10:01:12;;;;;;;2.22;1.23;;;24.90;61.50;;;;;;6324427;27;20054;-48
2023/06/13 10:04:13;;;;;;;1.55;1.33;;;24.20;61.40;;;;;;6337313;27;20670;-51
2023/06/13 10:07:14;;;;;;;1.40;1.30;;;24.50;61.00;;;;;;6356927;27;20065;-49
2023/06/13 10:10:18;;;;;;;1.60;1.27;;;24.40;61.00;;;;;;6349549;27;20050;-47
2023/06/13 10:13:25;;;;;;;1.65;0.90;;;24.00;60.70;;;;;;6347271;27;20027;-47
2023/06/13 10:16:28;;;;;;;1.70;1.25;;;24.50;61.20;;;;;;6348527;27;20034;-50
2023/06/13 10:19:33;;;;;;;3.25;1.20;;;24.60;61.10;;;;;;6349326;27;20708;-49
2023/06/13 10:22:36;;;;;;;1.50;1.40;;;24.50;61.10;;;;;;6326041;27;20113;-49
2023/06/13 10:25:38;;;;;;;1.25;1.15;;;24.50;61.20;;;;;;6337241;27;20034;-46
2023/06/13 10:28:58;;;;;;;1.65;1.20;;;24.60;61.40;;;;;;6353916;27;20031;-48
2023/06/13 10:32:12;;;;;;;1.02;0.93;;;24.60;61.00;;;;;;6345568;27;20308;-51
2023/06/13 10:35:39;;;;;;;1.40;1.30;;;24.50;61.00;;;;;;6344791;27;20766;-50
2023/06/13 10:39:09;;;;;;;1.30;1.20;;;24.60;60.90;;;;;;6338430;27;20026;-49
2023/06/13 10:42:19;;;;;;;1.15;1.05;;;24.70;60.90;;;;;;6357507;27;20049;-50
2023/06/13 10:45:24;;;;;;;1.88;1.20;;;24.60;60.70;;;;;;6364202;27;20707;-52
2023/06/13 10:48:35;;;;;;;1.20;1.10;;;24.70;60.70;;;;;;6366037;27;20774;-51
2023/06/13 10:51:37;;;;;;;1.05;0.95;;;24.70;60.70;;;;;;6360215;27;20106;-50
2023/06/13 10:54:39;;;;;;;1.30;0.98;;;24.90;60.90;;;;;;6359332;27;20043;-52
2023/06/13 10:57:49;;;;;;;1.20;1.10;;;24.70;60.80;;;;;;6359411;27;20062;-49
2023/06/13 11:00:50;;;;;;;1.48;1.20;;;24.90;61.10;;;;;;6360620;27;20416;-52
2023/06/13 11:03:53;;;;;;;1.23;1.13;;;24.90;60.90;;;;;;6360029;27;20126;-51
2023/06/13 11:07:24;;;;;;;1.25;1.15;;;24.90;60.60;;;;;;6358034;27;20037;-53
2023/06/13 11:10:30;;;;;;;1.27;1.17;;;24.90;60.30;;;;;;6349809;27;20584;-50
2023/06/13 11:13:32;;;;;;;0.90;0.90;;;25.00;60.50;;;;;;6367296;27;20255;-52
2023/06/13 11:16:37;;;;;;;1.55;1.45;;;24.90;61.10;;;;;;6362678;27;20027;-53
2023/06/13 11:19:40;;;;;;;1.17;0.88;;;25.00;60.70;;;;;;6374439;27;20042;-53
2023/06/13 11:22:44;;;;;;;1.15;1.05;;;25.10;61.20;;;;;;6371886;27;20501;-53
2023/06/13 11:25:46;;;;;;;1.05;0.95;;;25.00;60.80;;;;;;6374916;27;20039;-53
2023/06/13 11:28:50;;;;;;;1.58;0.90;;;24.80;60.90;;;;;;6353264;27;20107;-52
2023/06/13 11:31:53;;;;;;;1.30;1.20;;;25.00;61.20;;;;;;6359604;27;20099;-50
2023/06/13 11:35:00;;;;;;;2.10;1.90;;;24.90;60.90;;;;;;6370464;27;20030;-49
2023/06/13 11:38:07;;;;;;;1.90;1.50;;;25.00;61.30;;;;;;6362882;27;20058;-50
2023/06/13 11:41:09;;;;;;;2.38;2.17;;;25.00;61.00;;;;;;6360617;27;20050;-50
2023/06/13 11:44:12;;;;;;;4.50;2.05;;;25.10;61.50;;;;;;6355261;27;20050;-49
2023/06/13 11:47:14;;;;;;;3.65;3.05;;;24.90;60.90;;;;;;6377683;27;20042;-48
2023/06/13 11:50:24;;;;;;;3.45;3.15;;;25.00;60.70;;;;;;6377742;27;20038;-52
2023/06/13 11:53:26;;;;;;;3.65;3.35;;;25.10;60.80;;;;;;6373240;27;20042;-50
2023/06/13 11:56:28;;;;;;;3.42;3.13;;;25.10;60.70;;;;;;6368011;27;20038;-49
2023/06/13 11:59:32;;;;;;;3.58;3.28;;;24.70;60.30;;;;;;6356119;27;20421;-46
2023/06/13 12:02:33;;;;;;;4.10;3.75;;;25.00;60.50;;;;;;6368618;27;20062;-49
2023/06/13 12:05:38;;;;;;;4.28;3.53;;;25.00;60.60;;;;;;6368782;27;20672;-51
2023/06/13 12:08:42;;;;;;;4.10;3.45;;;25.10;60.40;;;;;;6371834;27;20821;-47
2023/06/13 12:11:45;;;;;;;3.50;3.20;;;25.20;60.40;;;;;;6337093;27;20039;-45
2023/06/13 12:14:53;;;;;;;4.63;3.05;;;25.10;60.40;;;;;;6376687;27;20039;-50
2023/06/13 12:17:57;;;;;;;5.30;3.42;;;25.20;60.80;;;;;;6377835;27;20027;-53
2023/06/13 12:21:00;;;;;;;3.65;3.35;;;25.10;60.40;;;;;;6387930;27;20041;-49
2023/06/13 12:24:06;;;;;;;5.72;4.00;;;25.20;60.50;;;;;;6379038;27;20634;-45
2023/06/13 12:27:11;;;;;;;4.57;3.63;;;25.10;60.20;;;;;;6380976;27;20096;-56
2023/06/13 12:30:14;;;;;;;4.78;3.30;;;25.20;60.50;;;;;;6386098;27;20042;-50
2023/06/13 12:33:19;;;;;;;3.70;3.10;;;24.80;60.60;;;;;;6336926;27;20796;-47
2023/06/13 12:36:28;;;;;;;4.30;3.25;;;25.10;61.10;;;;;;6354270;27;20037;-51
2023/06/13 12:39:30;;;;;;;4.60;2.90;;;25.30;61.20;;;;;;6347562;27;20037;-50
2023/06/13 12:42:35;;;;;;;3.92;3.05;;;25.30;61.10;;;;;;6373087;27;20721;-50
2023/06/13 12:45:36;;;;;;;3.92;3.58;;;25.30;61.10;;;;;;6375070;27;20127;-50
2023/06/13 12:48:38;;;;;;;4.78;3.10;;;25.30;61.20;;;;;;6359147;27;20038;-50
2023/06/13 12:51:42;;;;;;;4.70;3.35;;;25.10;60.80;;;;;;6373557;27;20050;-50
2023/06/13 12:54:46;;;;;;;4.60;2.97;;;25.00;60.40;;;;;;6356806;27;20055;-49
2023/06/13 12:57:48;;;;;;;3.95;3.55;;;25.40;60.60;;;;;;6374743;27;20046;-50
2023/06/13 13:00:53;;;;;;;3.80;3.33;;;25.50;60.10;;;;;;6379560;27;20039;-48
2023/06/13 13:03:54;;;;;;;3.63;3.33;;;25.20;59.80;;;;;;6349609;27;20692;-48
2023/06/13 13:06:57;;;;;;;4.57;3.25;;;25.40;60.00;;;;;;6354738;27;20110;-46
2023/06/13 13:10:01;;;;;;;4.05;3.47;;;25.30;59.80;;;;;;6323219;27;20763;-46
2023/06/13 13:13:04;;;;;;;4.10;3.58;;;24.90;59.30;;;;;;6374617;27;20102;-49
2023/06/13 13:16:06;;;;;;;4.68;3.70;;;25.50;59.30;;;;;;6373551;27;20035;-51
2023/06/13 13:19:07;;;;;;;6.68;3.88;;;25.50;59.00;;;;;;6375621;27;20035;-46
2023/06/13 13:22:10;;;;;;;4.68;3.53;;;25.50;58.90;;;;;;6371705;27;20026;-49
2023/06/13 13:25:11;;;;;;;4.88;3.35;;;25.50;58.70;;;;;;6379900;27;20473;-49
2023/06/13 13:28:13;;;;;;;4.82;3.45;;;25.40;58.50;;;;;;6365088;27;20042;-49
2023/06/13 13:31:14;;;;;;;3.97;2.75;;;25.50;58.50;;;;;;6390479;27;20039;-58
2023/06/13 13:34:16;;;;;;;5.75;3.38;;;25.10;58.20;;;;;;6409341;27;20037;-58
2023/06/13 13:37:21;;;;;;;3.60;3.28;;;25.60;58.50;;;;;;6416872;27;20768;-58
2023/06/13 13:40:22;;;;;;;4.53;3.35;;;25.50;58.40;;;;;;6397051;27;20026;-58
2023/06/13 13:43:24;;;;;;;4.05;3.60;;;25.50;58.40;;;;;;6417734;27;20027;-59
2023/06/13 13:46:25;;;;;;;4.22;3.63;;;25.40;58.40;;;;;;6396407;27;20277;-59
2023/06/13 13:49:27;;;;;;;4.55;3.67;;;25.50;58.60;;;;;;6366893;27;20039;-59
2023/06/13 13:52:30;;;;;;;4.35;3.92;;;25.60;59.00;;;;;;6383697;27;20042;-58
2023/06/13 13:55:34;;;;;;;5.03;3.70;;;25.50;58.90;;;;;;6378354;27;20039;-60
2023/06/13 13:58:35;;;;;;;4.15;3.38;;;25.50;58.60;;;;;;6382307;27;20046;-59
2023/06/13 14:01:37;;;;;;;4.07;3.50;;;25.60;58.40;;;;;;6376474;27;20026;-58
2023/06/13 14:04:38;;;;;;;3.80;3.42;;;25.60;58.20;;;;;;6361023;27;20066;-60
2023/06/13 14:07:42;;;;;;;3.70;3.40;;;25.60;58.30;;;;;;6357190;27;20031;-58
2023/06/13 14:10:43;;;;;;;5.10;3.72;;;24.60;57.50;;;;;;6375946;27;20045;-59
2023/06/13 14:13:45;;;;;;;4.53;3.75;;;25.30;58.10;;;;;;6395647;27;20118;-59
2023/06/13 14:16:47;;;;;;;3.65;3.10;;;25.50;57.90;;;;;;6400609;27;20085;-59
2023/06/13 14:19:48;;;;;;;3.92;3.53;;;25.30;57.80;;;;;;6406597;27;20127;-59
2023/06/13 14:22:53;;;;;;;3.13;2.85;;;25.70;58.00;;;;;;6409177;27;20755;-59
2023/06/13 14:25:54;;;;;;;3.97;3.58;;;25.30;57.70;;;;;;6403958;27;20043;-59
2023/06/13 14:28:56;;;;;;;5.45;3.65;;;25.50;58.00;;;;;;6409480;27;20034;-59
2023/06/13 14:31:57;;;;;;;4.15;3.47;;;25.60;58.00;;;;;;6404574;27;20279;-59
2023/06/13 14:34:59;;;;;;;4.03;3.30;;;25.70;58.30;;;;;;6405111;27;20111;-57
2023/06/13 14:38:04;;;;;;;4.07;3.38;;;25.60;57.80;;;;;;6413452;27;20105;-58
2023/06/13 14:41:06;;;;;;;4.32;3.85;;;25.70;57.70;;;;;;6407966;27;20050;-58
2023/06/13 14:44:07;;;;;;;4.65;3.17;;;26.20;58.00;;;;;;6412085;27;20048;-58
2023/06/13 14:47:14;;;;;;;3.72;3.10;;;25.70;57.90;;;;;;6403557;27;20107;-56
2023/06/13 14:50:16;;;;;;;3.72;3.30;;;25.70;57.50;;;;;;6388446;27;20528;-58
2023/06/13 14:53:18;;;;;;;3.92;3.55;;;25.60;57.50;;;;;;6369192;27;20066;-58
2023/06/13 14:56:20;;;;;;;4.25;3.70;;;25.40;57.30;;;;;;6347315;27;20141;-58
2023/06/13 14:59:22;;;;;;;4.82;3.65;;;24.80;56.90;;;;;;6359925;27;20038;-58
2023/06/13 15:02:23;;;;;;;2.95;2.65;;;25.60;57.00;;;;;;6364021;27;20043;-58
2023/06/13 15:05:26;;;;;;;4.22;3.10;;;25.60;57.00;;;;;;6374387;27;20042;-58
2023/06/13 15:08:28;;;;;;;4.90;3.28;;;25.60;56.60;;;;;;6367844;27;20035;-58
2023/06/13 15:11:29;;;;;;;4.25;2.63;;;25.50;56.70;;;;;;6344592;27;20042;-58
2023/06/13 15:14:31;;;;;;;3.30;3.00;;;25.50;56.40;;;;;;6361684;27;20063;-57
2023/06/13 15:17:32;;;;;;;3.83;2.90;;;25.20;55.90;;;;;;6358885;27;20717;-58
2023/06/13 15:20:35;;;;;;;3.90;3.45;;;25.40;55.80;;;;;;6354930;27;20718;-58
2023/06/13 15:23:37;;;;;;;3.55;2.72;;;25.70;55.90;;;;;;6361604;27;20787;-58
2023/06/13 15:26:40;;;;;;;3.40;3.00;;;25.60;55.60;;;;;;6363907;27;20906;-58
2023/06/13 15:29:43;;;;;;;3.85;3.28;;;25.60;55.50;;;;;;6368607;27;20034;-60
2023/06/13 15:32:44;;;;;;;3.30;3.00;;;25.60;55.50;;;;;;6381148;27;20051;-59
2023/06/13 15:35:46;;;;;;;3.55;2.80;;;25.60;55.70;;;;;;6397561;27;20019;-59
2023/06/13 15:38:48;;;;;;;4.30;3.17;;;25.60;55.80;;;;;;6389705;27;20035;-59
2023/06/13 15:41:49;;;;;;;3.30;3.00;;;25.70;56.10;;;;;;6410647;27;20072;-59
2023/06/13 15:44:53;;;;;;;3.22;2.78;;;25.30;56.20;;;;;;6392655;27;20022;-59
2023/06/13 15:47:55;;;;;;;3.63;2.50;;;25.40;56.70;;;;;;6412592;27;20027;-59
2023/06/13 15:50:57;;;;;;;2.40;2.20;;;25.40;56.70;;;;;;6396031;27;20318;-59
2023/06/13 15:54:01;;;;;;;2.40;2.20;;;25.60;57.20;;;;;;6400241;27;20271;-60
2023/06/13 15:57:03;;;;;;;2.80;2.03;;;25.60;57.30;;;;;;6405901;27;20030;-59
2023/06/13 16:00:06;;;;;;;1.73;1.63;;;25.60;57.60;;;;;;6411345;27;20046;-59
2023/06/13 16:03:14;;;;;;;1.67;1.40;;;25.40;57.70;;;;;;6394522;27;20050;-59
2023/06/13 16:06:16;;;;;;;1.70;1.60;;;25.60;58.10;;;;;;6407217;27;20019;-59